Time;durP1;ratioP1;P1;durP2;ratioP2;P2;SDS_P1;SDS_P2;PMS_P1;PMS_P2;Temp;Humidity;BMP_temperature;BMP_pressure;BME280_temperature;BME280_humidity;BME280_pressure;Samples;Min_cycle;Max_cycle;Signal;HPM_P1;HPM_P2
2022/05/07 00:01:40;;;;;;;1.80;1.70;;;8.50;99.90;;;;;;483781;246;27432;-70
2022/05/07 00:03:41;;;;;;;2.13;2.03;;;8.50;99.90;;;;;;483804;245;27844;-70
2022/05/07 00:05:42;;;;;;;1.83;1.73;;;8.50;99.90;;;;;;483940;245;27850;-73
2022/05/07 00:07:43;;;;;;;3.97;2.00;;;8.50;99.90;;;;;;483964;245;27750;-70
2022/05/07 00:09:45;;;;;;;2.30;2.10;;;8.50;99.90;;;;;;483983;245;27656;-71
2022/05/07 00:11:47;;;;;;;1.53;1.50;;;8.50;99.90;;;;;;483993;245;27587;-70
2022/05/07 00:13:47;;;;;;;2.00;1.90;;;8.40;99.90;;;;;;483938;245;28633;-70
2022/05/07 00:18:10;;;;;;;1.63;1.60;;;8.40;99.90;;;;;;483960;246;27970;-70
2022/05/07 00:20:09;;;;;;;2.30;2.20;;;8.40;99.90;;;;;;483803;246;27986;-70
2022/05/07 00:22:10;;;;;;;2.33;2.20;;;8.30;99.90;;;;;;483968;245;28130;-70
2022/05/07 00:24:11;;;;;;;2.00;1.90;;;8.30;99.90;;;;;;483960;245;27877;-70
2022/05/07 00:26:13;;;;;;;1.77;1.73;;;8.30;99.90;;;;;;483940;244;27949;-72
2022/05/07 00:28:14;;;;;;;1.60;1.60;;;8.30;99.90;;;;;;483989;245;27967;-70
2022/05/07 00:30:15;;;;;;;2.40;2.20;;;8.30;99.90;;;;;;483882;245;28645;-70
2022/05/07 00:32:17;;;;;;;2.00;1.90;;;8.30;99.90;;;;;;483992;245;28439;-70
2022/05/07 00:34:19;;;;;;;1.87;1.77;;;8.20;99.90;;;;;;483976;245;28603;-70
2022/05/07 00:36:19;;;;;;;1.67;1.57;;;8.20;99.90;;;;;;483899;246;28115;-73
2022/05/07 00:38:20;;;;;;;1.70;1.60;;;8.20;99.90;;;;;;483996;245;27490;-70
2022/05/07 00:40:21;;;;;;;1.67;1.60;;;8.20;99.90;;;;;;484009;245;27660;-71
2022/05/07 00:42:23;;;;;;;2.27;1.87;;;8.20;99.90;;;;;;484003;244;27480;-70
2022/05/07 00:44:24;;;;;;;1.80;1.70;;;8.20;99.90;;;;;;483947;244;27992;-73
2022/05/07 00:46:25;;;;;;;1.93;1.83;;;8.10;99.90;;;;;;483946;245;27968;-73
2022/05/07 00:48:26;;;;;;;1.87;1.77;;;8.10;99.90;;;;;;483983;245;27904;-70
2022/05/07 00:52:47;;;;;;;1.90;1.80;;;8.20;99.90;;;;;;483973;246;27795;-70
2022/05/07 00:54:49;;;;;;;2.00;1.90;;;8.20;99.90;;;;;;484005;245;27746;-69
2022/05/07 00:56:50;;;;;;;1.70;1.60;;;8.20;99.90;;;;;;483976;245;27991;-71
2022/05/07 00:58:51;;;;;;;1.90;1.80;;;8.10;99.90;;;;;;483999;245;27965;-69
2022/05/07 01:00:53;;;;;;;2.00;1.80;;;8.20;99.90;;;;;;483725;245;27970;-70
2022/05/07 01:02:54;;;;;;;2.27;2.07;;;8.10;99.90;;;;;;483927;246;27911;-71
2022/05/07 01:04:55;;;;;;;1.50;1.43;;;8.10;99.90;;;;;;483948;245;28181;-70
2022/05/07 01:06:56;;;;;;;1.80;1.70;;;8.10;99.90;;;;;;483972;245;27645;-71
2022/05/07 01:08:57;;;;;;;1.73;1.63;;;8.00;99.90;;;;;;483969;245;27868;-70
2022/05/07 01:10:59;;;;;;;1.70;1.60;;;8.10;99.90;;;;;;483993;245;27769;-71
2022/05/07 01:13:00;;;;;;;1.70;1.60;;;8.10;99.90;;;;;;483975;245;27877;-69
2022/05/07 01:15:01;;;;;;;1.70;1.60;;;8.00;99.90;;;;;;483981;245;27967;-70
2022/05/07 01:17:02;;;;;;;1.60;1.50;;;8.00;99.90;;;;;;477864;245;27986;-72
2022/05/07 01:19:04;;;;;;;1.53;1.50;;;8.00;99.90;;;;;;477765;249;28313;-70
2022/05/07 01:21:05;;;;;;;1.70;1.60;;;8.00;99.90;;;;;;477767;248;28397;-71
2022/05/07 01:23:06;;;;;;;1.90;1.80;;;8.00;99.90;;;;;;477810;249;30138;-70
2022/05/07 01:25:07;;;;;;;1.80;1.70;;;8.00;99.90;;;;;;477788;249;28314;-70
2022/05/07 01:27:09;;;;;;;1.93;1.70;;;7.90;99.90;;;;;;477784;249;28003;-70
2022/05/07 01:29:10;;;;;;;1.80;1.70;;;7.90;99.90;;;;;;477784;249;27915;-70
2022/05/07 01:31:11;;;;;;;1.60;1.50;;;7.90;99.90;;;;;;477748;249;27904;-70
2022/05/07 01:33:12;;;;;;;1.70;1.60;;;7.90;99.90;;;;;;477773;249;27951;-70
2022/05/07 01:35:14;;;;;;;1.60;1.53;;;7.80;99.90;;;;;;477784;248;27837;-70
2022/05/07 01:37:15;;;;;;;1.90;1.80;;;7.80;99.90;;;;;;477782;249;27846;-72
2022/05/07 01:39:16;;;;;;;1.93;1.83;;;7.80;99.90;;;;;;477785;249;27653;-70
2022/05/07 01:41:18;;;;;;;1.60;1.60;;;7.80;99.90;;;;;;477789;249;27883;-70
2022/05/07 01:43:19;;;;;;;1.80;1.73;;;7.80;99.90;;;;;;477702;249;27696;-70
2022/05/07 01:45:20;;;;;;;1.87;1.77;;;7.80;99.90;;;;;;477760;249;27912;-69
2022/05/07 01:49:41;;;;;;;1.70;1.60;;;7.70;99.90;;;;;;477763;249;28223;-70
2022/05/07 01:51:42;;;;;;;1.70;1.60;;;7.70;99.90;;;;;;477792;249;28322;-70
2022/05/07 01:53:43;;;;;;;1.90;1.80;;;7.60;99.90;;;;;;477770;248;28454;-75
2022/05/07 01:55:44;;;;;;;1.87;1.77;;;7.60;99.90;;;;;;477765;249;27936;-70
2022/05/07 01:57:46;;;;;;;1.73;1.63;;;7.50;99.90;;;;;;477799;249;27666;-70
2022/05/07 01:59:47;;;;;;;1.80;1.70;;;7.60;99.90;;;;;;477790;249;27864;-70
2022/05/07 02:01:48;;;;;;;2.20;1.70;;;7.50;99.90;;;;;;477810;249;27543;-70
2022/05/07 02:03:51;;;;;;;1.70;1.60;;;7.40;99.90;;;;;;477798;248;27662;-73
2022/05/07 02:05:51;;;;;;;1.97;1.87;;;7.40;99.90;;;;;;477738;249;27882;-70
2022/05/07 02:07:52;;;;;;;2.00;1.90;;;7.40;99.90;;;;;;477802;249;28251;-71
2022/05/07 02:09:53;;;;;;;2.00;1.90;;;7.40;99.90;;;;;;477789;248;27952;-69
2022/05/07 02:11:55;;;;;;;1.73;1.63;;;7.40;99.90;;;;;;477802;249;27793;-70
2022/05/07 02:13:57;;;;;;;1.80;1.70;;;7.40;99.90;;;;;;477795;249;28081;-70
2022/05/07 02:15:58;;;;;;;2.10;2.00;;;7.40;99.90;;;;;;477821;248;27937;-73
2022/05/07 02:17:59;;;;;;;1.97;1.80;;;7.40;99.90;;;;;;477787;249;28581;-70
2022/05/07 02:20:02;;;;;;;2.00;1.90;;;7.40;99.90;;;;;;477782;249;28116;-70
2022/05/07 02:22:02;;;;;;;1.93;1.83;;;7.40;99.90;;;;;;477721;249;28333;-69
2022/05/07 02:24:03;;;;;;;2.10;2.00;;;7.40;99.90;;;;;;477766;248;28521;-70
2022/05/07 02:26:04;;;;;;;2.00;1.90;;;7.30;99.90;;;;;;477798;249;29176;-73
2022/05/07 02:28:05;;;;;;;1.90;1.80;;;7.20;99.90;;;;;;477808;249;28414;-70
2022/05/07 02:30:07;;;;;;;2.00;1.90;;;7.20;99.90;;;;;;477789;248;27758;-70
2022/05/07 02:32:08;;;;;;;1.73;1.63;;;7.20;99.90;;;;;;477799;249;27744;-70
2022/05/07 02:34:09;;;;;;;2.13;1.90;;;7.20;99.90;;;;;;477787;248;27993;-70
2022/05/07 02:36:10;;;;;;;1.70;1.60;;;7.20;99.90;;;;;;477790;249;28872;-72
2022/05/07 02:38:12;;;;;;;1.80;1.70;;;7.20;99.90;;;;;;477805;249;28022;-69
2022/05/07 02:40:13;;;;;;;1.80;1.70;;;7.20;99.90;;;;;;477798;249;28066;-71
2022/05/07 02:44:34;;;;;;;2.12;1.90;;;7.20;99.90;;;;;;477772;249;28024;-71
2022/05/07 02:46:35;;;;;;;2.37;2.27;;;7.10;99.90;;;;;;477800;248;27425;-71
2022/05/07 02:48:36;;;;;;;1.87;1.77;;;7.00;99.90;;;;;;477801;249;27761;-70
2022/05/07 02:50:38;;;;;;;2.60;1.93;;;7.00;99.90;;;;;;477781;249;28089;-70
2022/05/07 02:52:39;;;;;;;1.83;1.73;;;6.90;99.90;;;;;;477794;249;29072;-70
2022/05/07 02:54:40;;;;;;;1.90;1.70;;;6.90;99.90;;;;;;477784;249;28265;-70
2022/05/07 02:56:41;;;;;;;2.10;2.00;;;6.90;99.90;;;;;;477795;248;28517;-72
2022/05/07 02:58:43;;;;;;;1.77;1.67;;;6.90;99.90;;;;;;477797;249;28414;-70
2022/05/07 03:00:44;;;;;;;2.28;2.08;;;7.00;99.90;;;;;;477782;249;28012;-71
2022/05/07 03:02:45;;;;;;;1.83;1.73;;;7.00;99.90;;;;;;477779;249;27393;-70
2022/05/07 03:04:47;;;;;;;2.00;1.70;;;6.90;99.90;;;;;;477801;248;27405;-70
2022/05/07 03:06:48;;;;;;;1.90;1.80;;;6.90;99.90;;;;;;477781;249;27506;-73
2022/05/07 03:08:49;;;;;;;1.80;1.70;;;6.90;99.90;;;;;;477785;249;27392;-70
2022/05/07 03:10:50;;;;;;;1.80;1.70;;;6.90;99.90;;;;;;477787;249;27441;-70
2022/05/07 03:12:51;;;;;;;1.87;1.77;;;6.90;99.90;;;;;;477778;249;27964;-70
2022/05/07 03:14:53;;;;;;;1.90;1.80;;;6.90;99.90;;;;;;477784;249;29842;-70
2022/05/07 03:16:54;;;;;;;1.73;1.62;;;6.80;99.90;;;;;;477755;248;28449;-71
2022/05/07 03:18:55;;;;;;;1.80;1.70;;;6.80;99.90;;;;;;477797;249;27959;-70
2022/05/07 03:20:57;;;;;;;2.10;2.00;;;6.80;99.90;;;;;;477787;249;28776;-70
2022/05/07 03:22:58;;;;;;;1.80;1.70;;;6.80;99.90;;;;;;477795;249;27390;-70
2022/05/07 03:24:59;;;;;;;1.67;1.60;;;6.80;99.90;;;;;;477784;247;27945;-70
2022/05/07 03:27:00;;;;;;;2.00;1.90;;;6.80;99.90;;;;;;477750;249;27440;-72
2022/05/07 03:29:01;;;;;;;2.10;2.00;;;6.70;99.90;;;;;;477805;248;27615;-69
2022/05/07 03:31:03;;;;;;;1.97;1.87;;;6.70;99.90;;;;;;477806;249;28356;-71
2022/05/07 03:33:05;;;;;;;1.95;1.85;;;6.80;99.90;;;;;;477795;249;27916;-75
2022/05/07 03:35:05;;;;;;;1.80;1.70;;;6.90;99.90;;;;;;477747;249;27929;-70
2022/05/07 03:37:06;;;;;;;2.03;1.83;;;6.90;99.90;;;;;;477779;249;29357;-72
2022/05/07 03:39:08;;;;;;;1.95;1.85;;;6.90;99.90;;;;;;477780;249;29200;-70
2022/05/07 03:41:09;;;;;;;2.05;1.95;;;6.90;99.90;;;;;;477788;249;27424;-70
2022/05/07 03:43:10;;;;;;;1.70;1.60;;;6.90;99.90;;;;;;477786;249;27508;-70
2022/05/07 03:45:11;;;;;;;1.90;1.80;;;6.80;99.90;;;;;;477780;249;28741;-70
2022/05/07 03:47:13;;;;;;;2.10;2.00;;;6.80;99.90;;;;;;477791;248;27436;-70
2022/05/07 03:49:15;;;;;;;2.30;2.20;;;6.70;99.90;;;;;;477797;249;27465;-70
2022/05/07 03:51:15;;;;;;;1.90;1.80;;;6.70;99.90;;;;;;477734;249;27780;-70
2022/05/07 03:53:33;;;;;;;2.93;1.73;;;6.70;99.90;;;;;;477782;249;28819;-70
2022/05/07 03:55:41;;;;;;;1.80;1.70;;;6.70;99.90;;;;;;477794;249;28035;-72
2022/05/07 03:57:36;;;;;;;2.13;2.03;;;6.70;99.90;;;;;;477436;249;27869;-70
2022/05/07 03:59:37;;;;;;;2.30;2.10;;;6.70;99.90;;;;;;477792;249;28382;-70
2022/05/07 04:01:38;;;;;;;1.93;1.83;;;6.70;99.90;;;;;;477769;249;27936;-69
2022/05/07 04:03:40;;;;;;;1.80;1.70;;;6.70;99.90;;;;;;477790;249;28843;-70
2022/05/07 04:05:41;;;;;;;1.87;1.77;;;6.70;99.90;;;;;;477657;249;28017;-75
2022/05/07 04:07:42;;;;;;;1.80;1.70;;;6.70;99.90;;;;;;477771;249;27385;-70
2022/05/07 04:09:43;;;;;;;2.20;2.03;;;6.90;99.90;;;;;;477785;249;27430;-71
2022/05/07 04:11:45;;;;;;;1.60;1.50;;;6.90;99.90;;;;;;477792;249;27489;-70
2022/05/07 04:13:46;;;;;;;1.75;1.65;;;6.80;99.90;;;;;;477771;248;28307;-71
2022/05/07 04:15:47;;;;;;;1.83;1.73;;;6.80;99.90;;;;;;477751;249;27917;-75
2022/05/07 04:17:49;;;;;;;1.98;1.87;;;6.80;99.90;;;;;;478106;246;28381;-69
2022/05/07 04:19:50;;;;;;;2.23;2.03;;;6.80;99.90;;;;;;483988;245;29684;-69
2022/05/07 04:21:51;;;;;;;1.65;1.55;;;6.90;99.90;;;;;;483979;245;27764;-70
2022/05/07 04:23:52;;;;;;;1.77;1.67;;;6.80;99.90;;;;;;483968;245;27604;-70
2022/05/07 04:25:54;;;;;;;3.10;1.90;;;6.90;99.90;;;;;;483973;245;27535;-75
2022/05/07 04:27:55;;;;;;;2.27;2.17;;;6.90;99.90;;;;;;483983;245;27474;-70
2022/05/07 04:29:57;;;;;;;2.33;2.00;;;6.80;99.90;;;;;;483961;245;28883;-71
2022/05/07 04:31:57;;;;;;;2.10;2.00;;;6.90;99.90;;;;;;483916;245;28824;-70
2022/05/07 04:33:59;;;;;;;1.80;1.70;;;7.00;99.90;;;;;;483984;245;27979;-70
2022/05/07 04:36:00;;;;;;;1.93;1.80;;;7.00;99.90;;;;;;483942;245;28333;-73
2022/05/07 04:38:01;;;;;;;2.20;2.00;;;7.00;99.90;;;;;;483966;244;28449;-70
2022/05/07 04:40:02;;;;;;;1.93;1.83;;;6.90;99.90;;;;;;484004;245;28518;-71
2022/05/07 04:42:04;;;;;;;2.00;1.90;;;6.90;99.90;;;;;;483969;244;28836;-70
2022/05/07 04:44:05;;;;;;;1.90;1.80;;;7.00;99.90;;;;;;483961;245;27970;-70
2022/05/07 04:46:06;;;;;;;3.70;2.07;;;7.10;99.90;;;;;;483963;245;27924;-75
2022/05/07 04:48:07;;;;;;;1.90;1.80;;;7.10;99.90;;;;;;483979;245;27611;-70
2022/05/07 04:50:09;;;;;;;2.20;2.00;;;7.10;99.90;;;;;;483989;245;28386;-70
2022/05/07 04:52:10;;;;;;;2.23;2.13;;;7.20;99.90;;;;;;483988;244;28144;-69
2022/05/07 04:54:11;;;;;;;2.33;2.13;;;7.20;99.90;;;;;;483944;244;28072;-70
2022/05/07 04:56:12;;;;;;;2.30;2.10;;;7.30;99.90;;;;;;483953;245;28046;-71
2022/05/07 04:58:14;;;;;;;2.13;2.03;;;7.30;99.90;;;;;;483982;245;27751;-70
2022/05/07 05:00:15;;;;;;;2.15;2.05;;;7.40;99.90;;;;;;483973;245;27959;-69
2022/05/07 05:02:16;;;;;;;2.17;2.07;;;7.40;99.90;;;;;;484011;245;27473;-70
2022/05/07 05:04:17;;;;;;;2.43;2.03;;;7.40;99.90;;;;;;483923;245;28255;-70
2022/05/07 05:06:19;;;;;;;2.13;2.03;;;7.40;99.90;;;;;;483974;244;28993;-74
2022/05/07 05:08:20;;;;;;;2.23;2.13;;;7.50;99.90;;;;;;483958;245;28389;-70
2022/05/07 05:10:22;;;;;;;1.87;1.80;;;7.50;99.90;;;;;;483989;245;28485;-70
2022/05/07 05:12:22;;;;;;;2.20;2.10;;;7.50;99.90;;;;;;483960;246;28362;-70
2022/05/07 05:16:43;;;;;;;2.23;2.13;;;7.60;99.90;;;;;;483961;246;28022;-72
2022/05/07 05:18:44;;;;;;;2.60;2.40;;;7.70;99.90;;;;;;483861;245;27392;-70
2022/05/07 05:20:46;;;;;;;2.00;1.90;;;7.80;99.90;;;;;;477746;249;27914;-70
2022/05/07 05:22:48;;;;;;;2.10;2.00;;;7.80;99.90;;;;;;477729;248;27585;-70
2022/05/07 05:24:48;;;;;;;1.93;1.83;;;7.90;99.90;;;;;;477746;249;27397;-70
2022/05/07 05:26:49;;;;;;;2.07;1.97;;;7.90;99.90;;;;;;477760;249;27550;-71
2022/05/07 05:28:51;;;;;;;1.93;1.83;;;8.00;99.90;;;;;;477759;249;28040;-70
2022/05/07 05:30:52;;;;;;;2.10;2.00;;;8.00;99.90;;;;;;477780;249;28076;-70
2022/05/07 05:32:53;;;;;;;2.30;2.20;;;8.10;99.90;;;;;;477762;249;27758;-70
2022/05/07 05:34:54;;;;;;;2.57;2.47;;;8.20;99.90;;;;;;477793;249;28237;-71
2022/05/07 05:36:56;;;;;;;2.23;2.13;;;8.10;99.90;;;;;;477795;249;28438;-72
2022/05/07 05:38:57;;;;;;;2.00;1.90;;;8.10;99.90;;;;;;477816;249;28251;-70
2022/05/07 05:40:58;;;;;;;2.20;2.10;;;8.20;99.90;;;;;;477806;249;28258;-70
2022/05/07 05:42:59;;;;;;;2.27;2.10;;;8.30;99.90;;;;;;477791;249;28457;-70
2022/05/07 05:45:01;;;;;;;2.20;1.93;;;8.30;99.90;;;;;;477773;249;27920;-71
2022/05/07 05:47:02;;;;;;;1.83;1.73;;;8.40;99.90;;;;;;477783;249;27876;-75
2022/05/07 05:49:03;;;;;;;2.10;2.00;;;8.50;99.90;;;;;;477802;249;27964;-70
2022/05/07 05:51:04;;;;;;;2.40;2.30;;;8.60;99.90;;;;;;477673;248;27907;-70
2022/05/07 05:53:07;;;;;;;3.23;2.10;;;8.60;99.90;;;;;;477798;249;27469;-70
2022/05/07 05:55:07;;;;;;;2.00;1.90;;;8.70;99.90;;;;;;477763;249;27903;-70
2022/05/07 05:57:08;;;;;;;2.10;2.00;;;8.80;99.90;;;;;;477814;249;28006;-73
2022/05/07 05:59:09;;;;;;;1.97;1.87;;;8.90;99.90;;;;;;477776;249;27955;-70
2022/05/07 06:01:11;;;;;;;2.10;2.00;;;8.90;99.90;;;;;;477807;249;27876;-70
2022/05/07 06:03:12;;;;;;;2.17;2.07;;;9.00;99.90;;;;;;477809;249;28061;-70
2022/05/07 06:05:13;;;;;;;1.77;1.67;;;9.20;99.90;;;;;;477793;249;27783;-70
2022/05/07 06:07:14;;;;;;;1.93;1.83;;;9.20;99.90;;;;;;477800;249;27982;-73
2022/05/07 06:09:16;;;;;;;2.40;2.07;;;9.30;99.90;;;;;;477816;249;27881;-70
2022/05/07 06:11:17;;;;;;;2.40;2.30;;;9.40;99.90;;;;;;477801;249;27809;-70
2022/05/07 06:13:18;;;;;;;1.97;1.87;;;9.50;99.90;;;;;;477779;249;27885;-70
2022/05/07 06:15:19;;;;;;;2.30;2.20;;;9.50;99.90;;;;;;477777;249;28359;-71
2022/05/07 06:17:21;;;;;;;2.00;1.90;;;9.60;99.90;;;;;;477806;249;28777;-73
2022/05/07 06:19:22;;;;;;;2.30;2.20;;;9.70;99.90;;;;;;477798;249;28499;-70
2022/05/07 06:21:23;;;;;;;2.43;2.33;;;9.70;99.90;;;;;;477807;249;28466;-70
2022/05/07 06:23:24;;;;;;;2.23;2.03;;;9.70;99.90;;;;;;477737;249;27948;-71
2022/05/07 06:27:45;;;;;;;2.03;1.93;;;9.90;99.90;;;;;;477704;249;28282;-71
2022/05/07 06:29:47;;;;;;;2.13;2.03;;;10.00;99.90;;;;;;477780;249;28310;-70
2022/05/07 06:31:48;;;;;;;2.00;1.90;;;10.10;99.90;;;;;;477792;249;28042;-71
2022/05/07 06:33:49;;;;;;;2.23;2.03;;;10.20;99.90;;;;;;477811;249;28009;-70
2022/05/07 06:35:50;;;;;;;2.27;2.17;;;10.30;99.90;;;;;;477794;249;27515;-70
2022/05/07 06:37:52;;;;;;;2.60;2.47;;;10.40;99.90;;;;;;477693;249;27908;-71
2022/05/07 06:39:53;;;;;;;2.50;2.40;;;10.40;99.90;;;;;;477778;249;27894;-70
2022/05/07 06:41:54;;;;;;;2.50;2.30;;;10.60;99.90;;;;;;477784;249;27878;-71
2022/05/07 06:43:55;;;;;;;2.20;2.10;;;10.60;99.90;;;;;;477809;249;28245;-71
2022/05/07 06:45:57;;;;;;;2.40;2.30;;;10.80;99.90;;;;;;477795;249;28006;-70
2022/05/07 06:47:58;;;;;;;2.57;2.47;;;10.90;99.90;;;;;;477810;249;28477;-72
2022/05/07 06:50:00;;;;;;;2.67;2.50;;;10.90;99.90;;;;;;477796;249;28307;-70
2022/05/07 06:52:00;;;;;;;2.37;2.17;;;11.00;99.90;;;;;;477740;249;28380;-71
2022/05/07 06:54:02;;;;;;;2.77;2.57;;;11.00;99.90;;;;;;477797;249;29227;-70
2022/05/07 06:56:03;;;;;;;2.50;2.40;;;11.10;99.90;;;;;;477784;248;27961;-70
2022/05/07 06:58:05;;;;;;;3.23;3.00;;;11.20;99.90;;;;;;477778;249;27784;-72
2022/05/07 07:00:05;;;;;;;2.83;2.63;;;11.30;99.90;;;;;;477746;249;27990;-71
2022/05/07 07:02:07;;;;;;;2.50;2.40;;;11.40;99.90;;;;;;477786;249;27783;-71
2022/05/07 07:04:08;;;;;;;2.83;2.63;;;11.50;99.90;;;;;;477792;249;28017;-71
2022/05/07 07:06:09;;;;;;;2.63;2.47;;;11.60;99.90;;;;;;477781;249;28022;-70
2022/05/07 07:08:13;;;;;;;2.33;2.23;;;11.80;99.90;;;;;;477794;249;28032;-74
2022/05/07 07:10:12;;;;;;;2.93;2.53;;;11.90;99.90;;;;;;477669;249;28140;-71
2022/05/07 07:12:13;;;;;;;2.60;2.40;;;12.20;99.90;;;;;;477770;249;28038;-71
2022/05/07 07:14:14;;;;;;;4.13;3.20;;;12.80;99.90;;;;;;477754;248;29403;-71
2022/05/07 07:16:15;;;;;;;3.73;3.40;;;13.40;99.90;;;;;;477779;249;28668;-72
2022/05/07 07:18:17;;;;;;;3.90;3.00;;;13.70;99.90;;;;;;477788;249;28751;-72
2022/05/07 07:20:18;;;;;;;5.10;3.23;;;14.10;99.90;;;;;;477795;249;28269;-71
2022/05/07 07:22:19;;;;;;;3.27;2.97;;;14.30;99.90;;;;;;483791;246;28631;-71
2022/05/07 07:24:21;;;;;;;3.10;2.90;;;14.40;99.90;;;;;;483986;240;28293;-71
2022/05/07 07:26:22;;;;;;;2.87;2.60;;;14.50;99.90;;;;;;483948;246;28870;-70
2022/05/07 07:28:23;;;;;;;2.77;2.57;;;14.50;99.90;;;;;;483996;245;28170;-70
2022/05/07 07:30:24;;;;;;;3.07;2.87;;;14.60;99.90;;;;;;483993;245;28327;-71
2022/05/07 07:32:25;;;;;;;3.17;2.83;;;14.80;99.90;;;;;;484002;245;28444;-71
2022/05/07 07:34:27;;;;;;;3.10;2.90;;;14.80;99.90;;;;;;484002;245;28162;-70
2022/05/07 07:36:28;;;;;;;4.23;2.97;;;14.90;99.90;;;;;;484015;245;28215;-71
2022/05/07 07:38:29;;;;;;;3.00;2.80;;;14.90;99.90;;;;;;483999;245;28335;-73
2022/05/07 07:40:31;;;;;;;3.23;3.03;;;14.90;99.90;;;;;;484003;245;28358;-70
2022/05/07 07:42:32;;;;;;;3.10;2.80;;;15.00;99.90;;;;;;483769;245;28199;-71
2022/05/07 07:44:33;;;;;;;3.13;2.83;;;15.00;99.90;;;;;;483620;245;28962;-71
2022/05/07 07:48:54;;;;;;;3.50;2.67;;;15.20;99.90;;;;;;483603;246;28440;-73
2022/05/07 07:50:55;;;;;;;3.17;2.97;;;15.30;99.90;;;;;;484003;245;28522;-71
2022/05/07 07:52:56;;;;;;;4.97;2.70;;;15.40;99.90;;;;;;484015;245;28531;-71
2022/05/07 07:54:57;;;;;;;3.20;2.90;;;15.50;99.90;;;;;;484041;245;28457;-72
2022/05/07 07:57:02;;;;;;;3.70;3.00;;;15.50;99.90;;;;;;483997;245;28553;-71
2022/05/07 07:59:00;;;;;;;3.20;2.90;;;15.50;99.90;;;;;;483742;245;28574;-71
2022/05/07 08:01:01;;;;;;;2.70;2.60;;;15.40;99.90;;;;;;483915;245;28591;-71
2022/05/07 08:03:05;;;;;;;5.17;2.60;;;15.40;99.90;;;;;;483827;245;28805;-71
2022/05/07 08:05:06;;;;;;;2.80;2.67;;;15.50;99.90;;;;;;483864;245;28865;-71
2022/05/07 08:11:47;;;;;;;2.77;2.57;;;15.80;99.90;;;;;;483993;246;28549;-71
2022/05/07 08:13:48;;;;;;;3.57;3.13;;;16.00;99.90;;;;;;484011;245;28825;-73
2022/05/07 08:15:49;;;;;;;3.23;2.90;;;16.10;99.90;;;;;;484015;245;28826;-71
2022/05/07 08:17:51;;;;;;;2.63;2.43;;;16.10;99.90;;;;;;483977;244;28988;-71
2022/05/07 08:19:52;;;;;;;4.40;3.10;;;15.90;99.90;;;;;;484006;245;28876;-71
2022/05/07 08:21:53;;;;;;;2.90;2.70;;;16.10;99.90;;;;;;484006;245;28882;-71
2022/05/07 08:23:54;;;;;;;3.20;2.87;;;16.30;99.90;;;;;;484053;245;28900;-74
2022/05/07 08:25:56;;;;;;;2.80;2.60;;;16.30;99.90;;;;;;483964;245;28927;-71
2022/05/07 08:27:57;;;;;;;2.40;2.20;;;16.20;99.90;;;;;;483971;245;29485;-71
2022/05/07 08:29:58;;;;;;;2.73;2.33;;;16.30;99.90;;;;;;483979;244;29276;-71
2022/05/07 08:31:59;;;;;;;2.43;2.20;;;16.40;99.90;;;;;;483998;245;29284;-71
2022/05/07 08:34:01;;;;;;;2.53;2.33;;;16.40;99.90;;;;;;483998;245;29362;-72
2022/05/07 08:36:02;;;;;;;3.10;2.67;;;16.30;99.90;;;;;;483962;244;28873;-70
2022/05/07 08:38:03;;;;;;;2.53;2.33;;;16.50;99.90;;;;;;483987;244;28865;-71
2022/05/07 08:40:04;;;;;;;3.03;2.70;;;16.60;99.90;;;;;;483995;245;28839;-71
2022/05/07 08:42:06;;;;;;;3.03;2.27;;;16.50;99.90;;;;;;483995;245;28905;-71
2022/05/07 08:44:07;;;;;;;5.77;2.60;;;16.60;99.90;;;;;;483989;245;28876;-73
2022/05/07 08:46:09;;;;;;;2.80;2.60;;;16.70;99.90;;;;;;483982;245;28746;-71
2022/05/07 08:48:09;;;;;;;2.90;2.63;;;16.80;99.90;;;;;;483963;245;28777;-72
2022/05/07 08:50:11;;;;;;;2.80;2.60;;;16.80;99.90;;;;;;483969;245;28734;-71
2022/05/07 08:52:12;;;;;;;4.60;2.50;;;17.00;99.90;;;;;;483979;245;29273;-72
2022/05/07 08:54:13;;;;;;;2.73;2.50;;;16.70;99.90;;;;;;483979;245;29475;-72
2022/05/07 08:56:14;;;;;;;2.40;2.30;;;16.70;99.90;;;;;;483978;245;29209;-71
2022/05/07 08:58:16;;;;;;;2.80;2.60;;;16.50;99.90;;;;;;483999;245;28966;-72
2022/05/07 09:00:17;;;;;;;4.67;2.60;;;16.60;99.90;;;;;;483973;245;28833;-70
2022/05/07 09:02:20;;;;;;;2.73;2.53;;;16.60;99.90;;;;;;483681;245;28880;-71
2022/05/07 09:04:21;;;;;;;3.27;2.70;;;16.60;99.90;;;;;;484011;245;28877;-73
2022/05/07 09:06:23;;;;;;;3.20;2.50;;;16.70;99.90;;;;;;484000;245;28920;-71
2022/05/07 09:08:24;;;;;;;3.67;3.13;;;17.00;99.90;;;;;;483953;245;29364;-71
2022/05/07 09:10:26;;;;;;;3.60;3.03;;;17.10;99.90;;;;;;483978;245;29312;-71
2022/05/07 09:12:28;;;;;;;2.97;2.77;;;17.10;99.90;;;;;;483905;244;29324;-71
2022/05/07 09:14:28;;;;;;;2.57;2.40;;;17.10;99.90;;;;;;483894;246;28797;-73
2022/05/07 09:16:29;;;;;;;2.47;2.37;;;16.70;99.90;;;;;;483999;245;28836;-71
2022/05/07 09:18:31;;;;;;;3.27;3.03;;;16.60;99.90;;;;;;484000;245;28876;-71
2022/05/07 09:20:32;;;;;;;3.87;2.27;;;16.70;99.90;;;;;;483977;245;28872;-72
2022/05/07 09:22:34;;;;;;;3.43;2.93;;;16.60;99.90;;;;;;483942;244;28837;-71
2022/05/07 09:24:35;;;;;;;3.30;3.10;;;16.90;99.90;;;;;;483988;245;29864;-71
2022/05/07 09:26:38;;;;;;;4.00;3.40;;;17.10;99.90;;;;;;483989;245;29364;-72
2022/05/07 09:28:38;;;;;;;2.95;2.40;;;17.20;99.90;;;;;;481277;246;36820;-71
2022/05/07 09:30:41;;;;;;;2.90;2.40;;;17.00;99.90;;;;;;483897;246;27611;-71
2022/05/07 09:32:40;;;;;;;2.60;2.40;;;17.20;99.90;;;;;;483819;246;28818;-71
2022/05/07 09:37:01;;;;;;;2.77;2.33;;;17.40;99.90;;;;;;483914;246;28857;-72
2022/05/07 09:39:02;;;;;;;2.40;2.30;;;17.50;99.90;;;;;;483979;244;28941;-71
2022/05/07 09:41:04;;;;;;;3.17;2.50;;;17.60;99.90;;;;;;483986;245;28844;-71
2022/05/07 09:43:05;;;;;;;2.83;2.63;;;17.60;99.90;;;;;;483778;245;28861;-72
2022/05/07 09:45:06;;;;;;;2.97;2.77;;;17.60;99.90;;;;;;483987;245;29298;-71
2022/05/07 09:47:09;;;;;;;2.47;2.37;;;17.70;99.90;;;;;;483955;245;29434;-72
2022/05/07 09:49:09;;;;;;;2.60;2.40;;;17.80;99.90;;;;;;483840;246;30215;-71
2022/05/07 09:51:10;;;;;;;3.60;2.60;;;17.80;99.90;;;;;;483971;245;29293;-71
2022/05/07 09:57:50;;;;;;;4.00;2.53;;;17.60;99.90;;;;;;483986;246;29292;-70
2022/05/07 09:59:52;;;;;;;5.10;3.03;;;17.70;99.90;;;;;;483989;245;29348;-71
2022/05/07 10:01:53;;;;;;;2.47;2.30;;;17.80;99.90;;;;;;483963;245;30086;-71
2022/05/07 10:03:54;;;;;;;2.47;2.30;;;17.80;99.90;;;;;;483972;244;28921;-71
2022/05/07 10:05:55;;;;;;;2.50;2.30;;;17.80;99.90;;;;;;483967;245;28944;-72
2022/05/07 10:07:57;;;;;;;2.40;2.30;;;17.80;99.90;;;;;;483942;245;28884;-71
2022/05/07 10:09:58;;;;;;;1.90;1.80;;;17.80;99.90;;;;;;483989;245;28963;-72
2022/05/07 10:11:59;;;;;;;4.03;2.43;;;18.00;99.90;;;;;;483918;245;28947;-70
2022/05/07 10:14:00;;;;;;;2.63;2.43;;;18.20;99.90;;;;;;483969;245;28837;-72
2022/05/07 10:16:02;;;;;;;4.17;2.50;;;18.50;99.90;;;;;;483875;246;28861;-73
2022/05/07 10:18:03;;;;;;;3.97;2.60;;;18.60;99.90;;;;;;483975;245;28845;-71
2022/05/07 10:20:04;;;;;;;2.33;2.13;;;18.50;99.90;;;;;;483875;245;28908;-71
2022/05/07 10:22:05;;;;;;;3.00;2.33;;;18.60;99.90;;;;;;483634;245;29827;-71
2022/05/07 10:24:08;;;;;;;3.03;2.50;;;18.70;99.90;;;;;;483996;245;29337;-72
2022/05/07 10:26:08;;;;;;;2.73;2.53;;;18.40;99.90;;;;;;483972;245;29301;-72
2022/05/07 10:28:10;;;;;;;2.30;2.10;;;18.40;99.90;;;;;;483998;245;28869;-71
2022/05/07 10:30:10;;;;;;;1.90;1.80;;;18.40;99.90;;;;;;483992;245;28955;-71
2022/05/07 10:32:12;;;;;;;2.30;2.20;;;18.50;99.90;;;;;;483977;245;28860;-72
2022/05/07 10:34:13;;;;;;;2.27;2.10;;;18.60;99.90;;;;;;483984;245;28836;-71
2022/05/07 10:36:14;;;;;;;2.90;2.70;;;18.70;99.90;;;;;;483981;245;28847;-72
2022/05/07 10:38:15;;;;;;;2.30;2.17;;;18.50;99.90;;;;;;483975;245;28837;-71
2022/05/07 10:40:17;;;;;;;3.23;2.90;;;18.50;99.90;;;;;;483980;245;28862;-72
2022/05/07 10:42:22;;;;;;;2.47;2.37;;;18.80;99.90;;;;;;483984;246;29220;-75
2022/05/07 10:44:22;;;;;;;2.40;2.30;;;19.00;99.90;;;;;;483899;246;28892;-71
2022/05/07 10:46:23;;;;;;;2.33;2.10;;;19.00;99.90;;;;;;483988;245;28894;-71
2022/05/07 10:48:24;;;;;;;2.70;2.50;;;19.10;99.90;;;;;;483975;245;28876;-71
2022/05/07 10:50:26;;;;;;;2.27;2.07;;;19.10;99.90;;;;;;483967;245;28990;-71
2022/05/07 10:52:27;;;;;;;2.93;2.40;;;19.00;99.90;;;;;;483973;245;28927;-71
2022/05/07 10:54:28;;;;;;;4.60;2.40;;;19.00;99.90;;;;;;483969;245;29793;-73
2022/05/07 10:56:29;;;;;;;3.30;2.30;;;18.80;99.90;;;;;;483977;245;29321;-72
2022/05/07 10:58:31;;;;;;;2.73;2.20;;;19.10;99.90;;;;;;483979;245;29334;-74
2022/05/07 11:00:34;;;;;;;2.37;2.10;;;19.10;99.90;;;;;;483977;245;29329;-71
2022/05/07 11:02:33;;;;;;;3.90;2.13;;;19.10;99.90;;;;;;483780;246;28860;-72
2022/05/07 11:04:34;;;;;;;2.50;2.30;;;19.10;99.90;;;;;;483971;245;28869;-71